Portada
METAR-TAF:

METAR-TAF

Aeropuertos :

Aeropuerto Internacional de El Cairo

El Cairo, Egipto

latitud: 30-08N, longitud: 031-24E, altitud: 64 m

Observación

El informe se hizo hace 7 minutos, a las 16:00 UTC
Viento 8 kt del norte
Temperatura 27°C
Humedad 48%
Presión 1013 hPa
Visibilidad 10 km o más
Nubes dispersas a una altura de 2500 ft

METAR: HECA 171600Z 35008KT 9999 SCT025 27/15 Q1013 NOSIG

Hora: 18:07 (16:07 UTC)

Pronóstico

El informe se hizo hace 5 horas y 7 minutos, a las 11:00 UTC
Pronóstico válido del 17 a las 12 UTC al 18 a las 18 UTC
Viento 10 kt del norte
Visibilidad 10 km o más
Cielo nuboso a una altura de 2500 ft

TAF: HECA 171100Z 1712/1818 35010KT 9999 BKN025

Observaciones y pronósticos meteorológicos de más de 4000 aeropuertos (mensajes METAR y TAF).

Los puntos amarillos y rojos representan las estaciones disponibles.

Ponga el ratón en el punto deseado para ver el nombre de la estación.

Haga clic para ver las observaciones y los pronósticos meteorológicos.

Para cambiar el mapa : haga clic en los botones verdes con una cruz de color negro para hacer un zoom, en el botón verde con un guión para alejar o en las flechas verdes para mapas adyacentes.


METAR-TAF: